< < Back
Terminal Aerodrome Forecast


Current Version              Previous Versions:   1  2  3  4  5  6  7  8  9  

Terminal Aerodrome Forecast

698
FTUS42 KMLB 012300 RRA
TAFDAB
TAF
KDAB 012342Z 0200/0224 VRB04KT P6SM FEW040 BKN250
     FM021400 10004KT P6SM FEW025
     FM021800 09008KT P6SM FEW040=



Latest METAR

752
SAUS80 KWBC 021400
MTRDAB
METAR KDAB 021353Z COR 30003KT 10SM FEW025 FEW080 FEW250 29/23 A3011 RMK
AO2 SLP197 T02940228


USA.gov is the U.S. government's official web portal to all federal, state and local government web resources and services.